sensor_id;sensor_type;location;lat;lon;timestamp;temperature;humidity
80250;DHT22;69561;37.974;23.708;2023-06-26T00:00:26;28.80;50.20
80250;DHT22;69561;37.974;23.708;2023-06-26T00:02:51;28.80;49.90
80250;DHT22;69561;37.974;23.708;2023-06-26T00:05:17;28.80;49.90
80250;DHT22;69561;37.974;23.708;2023-06-26T00:07:43;28.80;49.80
80250;DHT22;69561;37.974;23.708;2023-06-26T00:10:09;28.80;49.80
80250;DHT22;69561;37.974;23.708;2023-06-26T00:12:34;28.80;49.70
80250;DHT22;69561;37.974;23.708;2023-06-26T00:15:00;28.80;49.70
80250;DHT22;69561;37.974;23.708;2023-06-26T00:17:26;28.80;49.70
80250;DHT22;69561;37.974;23.708;2023-06-26T00:19:52;28.80;49.70
80250;DHT22;69561;37.974;23.708;2023-06-26T00:22:18;28.80;49.70
80250;DHT22;69561;37.974;23.708;2023-06-26T00:24:44;28.80;49.80
80250;DHT22;69561;37.974;23.708;2023-06-26T00:27:10;28.70;49.80
80250;DHT22;69561;37.974;23.708;2023-06-26T00:29:36;28.80;49.90
80250;DHT22;69561;37.974;23.708;2023-06-26T00:32:04;28.80;49.90
80250;DHT22;69561;37.974;23.708;2023-06-26T00:34:30;28.80;49.90
80250;DHT22;69561;37.974;23.708;2023-06-26T00:36:56;28.80;49.80
80250;DHT22;69561;37.974;23.708;2023-06-26T00:39:22;28.80;49.80
80250;DHT22;69561;37.974;23.708;2023-06-26T00:41:51;28.80;49.80
80250;DHT22;69561;37.974;23.708;2023-06-26T00:44:19;28.80;49.80
80250;DHT22;69561;37.974;23.708;2023-06-26T00:46:45;28.80;49.90
80250;DHT22;69561;37.974;23.708;2023-06-26T00:49:11;28.80;49.90
80250;DHT22;69561;37.974;23.708;2023-06-26T00:51:38;28.80;49.90
80250;DHT22;69561;37.974;23.708;2023-06-26T00:54:03;28.80;49.90
80250;DHT22;69561;37.974;23.708;2023-06-26T00:56:31;28.80;49.90
80250;DHT22;69561;37.974;23.708;2023-06-26T00:58:57;28.80;49.90
80250;DHT22;69561;37.974;23.708;2023-06-26T01:01:22;28.70;49.80
80250;DHT22;69561;37.974;23.708;2023-06-26T01:03:52;28.80;49.80
80250;DHT22;69561;37.974;23.708;2023-06-26T01:06:21;28.70;49.70
80250;DHT22;69561;37.974;23.708;2023-06-26T01:08:47;28.80;49.70
80250;DHT22;69561;37.974;23.708;2023-06-26T01:11:14;28.80;49.70
80250;DHT22;69561;37.974;23.708;2023-06-26T01:13:42;28.80;49.70
80250;DHT22;69561;37.974;23.708;2023-06-26T01:16:09;28.80;49.60
80250;DHT22;69561;37.974;23.708;2023-06-26T01:18:37;28.80;49.60
80250;DHT22;69561;37.974;23.708;2023-06-26T01:21:07;28.80;49.60
80250;DHT22;69561;37.974;23.708;2023-06-26T01:24:18;28.80;49.60
80250;DHT22;69561;37.974;23.708;2023-06-26T01:26:40;28.80;49.40
80250;DHT22;69561;37.974;23.708;2023-06-26T01:29:07;28.70;49.30
80250;DHT22;69561;37.974;23.708;2023-06-26T01:31:35;28.80;49.40
80250;DHT22;69561;37.974;23.708;2023-06-26T01:34:02;28.70;49.30
80250;DHT22;69561;37.974;23.708;2023-06-26T01:36:28;28.80;49.30
80250;DHT22;69561;37.974;23.708;2023-06-26T01:38:54;28.80;49.40
80250;DHT22;69561;37.974;23.708;2023-06-26T01:41:20;28.80;49.30
80250;DHT22;69561;37.974;23.708;2023-06-26T01:51:38;28.80;49.20
80250;DHT22;69561;37.974;23.708;2023-06-26T01:54:09;28.80;49.30
80250;DHT22;69561;37.974;23.708;2023-06-26T01:56:35;28.80;49.20
80250;DHT22;69561;37.974;23.708;2023-06-26T01:59:05;28.70;49.30
80250;DHT22;69561;37.974;23.708;2023-06-26T02:01:32;28.70;49.30
80250;DHT22;69561;37.974;23.708;2023-06-26T02:03:59;28.70;49.30
80250;DHT22;69561;37.974;23.708;2023-06-26T02:06:25;28.70;49.40
80250;DHT22;69561;37.974;23.708;2023-06-26T02:08:51;28.80;49.50
80250;DHT22;69561;37.974;23.708;2023-06-26T02:11:16;28.70;49.40
80250;DHT22;69561;37.974;23.708;2023-06-26T02:13:42;28.80;49.50
80250;DHT22;69561;37.974;23.708;2023-06-26T02:16:08;28.70;49.40
80250;DHT22;69561;37.974;23.708;2023-06-26T02:18:34;28.80;49.40
80250;DHT22;69561;37.974;23.708;2023-06-26T02:20:59;28.80;49.50
80250;DHT22;69561;37.974;23.708;2023-06-26T02:23:25;28.80;49.50
80250;DHT22;69561;37.974;23.708;2023-06-26T02:25:51;28.70;49.40
80250;DHT22;69561;37.974;23.708;2023-06-26T02:28:17;28.80;49.40
80250;DHT22;69561;37.974;23.708;2023-06-26T02:30:42;28.80;49.30
80250;DHT22;69561;37.974;23.708;2023-06-26T02:33:08;28.80;49.30
80250;DHT22;69561;37.974;23.708;2023-06-26T02:35:34;28.80;49.20
80250;DHT22;69561;37.974;23.708;2023-06-26T02:37:59;28.80;49.20
80250;DHT22;69561;37.974;23.708;2023-06-26T02:40:25;28.80;49.10
80250;DHT22;69561;37.974;23.708;2023-06-26T02:42:51;28.80;49.10
80250;DHT22;69561;37.974;23.708;2023-06-26T02:45:17;28.80;49.10
80250;DHT22;69561;37.974;23.708;2023-06-26T02:47:42;28.80;49.10
80250;DHT22;69561;37.974;23.708;2023-06-26T02:50:08;28.80;49.00
80250;DHT22;69561;37.974;23.708;2023-06-26T02:52:34;28.80;49.00
80250;DHT22;69561;37.974;23.708;2023-06-26T02:55:00;28.80;49.00
80250;DHT22;69561;37.974;23.708;2023-06-26T02:57:25;28.80;49.00
80250;DHT22;69561;37.974;23.708;2023-06-26T02:59:51;28.80;49.00
80250;DHT22;69561;37.974;23.708;2023-06-26T03:02:17;28.80;48.90
80250;DHT22;69561;37.974;23.708;2023-06-26T03:04:42;28.80;48.90
80250;DHT22;69561;37.974;23.708;2023-06-26T03:07:09;28.80;48.90
80250;DHT22;69561;37.974;23.708;2023-06-26T03:09:34;28.80;48.90
80250;DHT22;69561;37.974;23.708;2023-06-26T03:12:00;28.80;48.90
80250;DHT22;69561;37.974;23.708;2023-06-26T03:14:26;28.80;48.90
80250;DHT22;69561;37.974;23.708;2023-06-26T03:16:52;28.80;48.90
80250;DHT22;69561;37.974;23.708;2023-06-26T03:19:18;28.80;48.90
80250;DHT22;69561;37.974;23.708;2023-06-26T03:21:44;28.80;49.00
80250;DHT22;69561;37.974;23.708;2023-06-26T03:24:10;28.70;49.10
80250;DHT22;69561;37.974;23.708;2023-06-26T03:26:35;28.80;50.20
80250;DHT22;69561;37.974;23.708;2023-06-26T03:29:01;28.70;49.30
80250;DHT22;69561;37.974;23.708;2023-06-26T03:31:27;28.80;49.50
80250;DHT22;69561;37.974;23.708;2023-06-26T03:33:53;28.80;49.40
80250;DHT22;69561;37.974;23.708;2023-06-26T03:36:18;28.70;49.40
80250;DHT22;69561;37.974;23.708;2023-06-26T03:38:44;28.80;49.40
80250;DHT22;69561;37.974;23.708;2023-06-26T03:41:10;28.80;49.30
80250;DHT22;69561;37.974;23.708;2023-06-26T03:43:36;28.80;49.30
80250;DHT22;69561;37.974;23.708;2023-06-26T03:46:02;28.80;49.20
80250;DHT22;69561;37.974;23.708;2023-06-26T03:48:27;28.80;49.10
80250;DHT22;69561;37.974;23.708;2023-06-26T03:50:53;28.90;48.90
80250;DHT22;69561;37.974;23.708;2023-06-26T03:53:19;28.90;48.70
80250;DHT22;69561;37.974;23.708;2023-06-26T03:55:45;28.90;48.70
80250;DHT22;69561;37.974;23.708;2023-06-26T03:58:10;28.90;48.50
80250;DHT22;69561;37.974;23.708;2023-06-26T04:00:36;28.90;48.50
80250;DHT22;69561;37.974;23.708;2023-06-26T04:03:02;28.90;48.50
80250;DHT22;69561;37.974;23.708;2023-06-26T04:05:28;28.90;48.40
80250;DHT22;69561;37.974;23.708;2023-06-26T04:07:54;28.90;48.30
80250;DHT22;69561;37.974;23.708;2023-06-26T04:10:19;28.90;48.40
80250;DHT22;69561;37.974;23.708;2023-06-26T04:12:47;29.00;48.40
80250;DHT22;69561;37.974;23.708;2023-06-26T04:15:13;29.00;48.30
80250;DHT22;69561;37.974;23.708;2023-06-26T04:17:39;29.10;48.20
80250;DHT22;69561;37.974;23.708;2023-06-26T04:20:05;29.10;48.20
80250;DHT22;69561;37.974;23.708;2023-06-26T04:22:32;29.00;53.90
80250;DHT22;69561;37.974;23.708;2023-06-26T04:24:58;29.00;49.80
80250;DHT22;69561;37.974;23.708;2023-06-26T04:27:24;28.90;49.10
80250;DHT22;69561;37.974;23.708;2023-06-26T04:29:49;28.90;48.50
80250;DHT22;69561;37.974;23.708;2023-06-26T04:32:15;28.90;48.70
80250;DHT22;69561;37.974;23.708;2023-06-26T04:34:41;28.90;48.50
80250;DHT22;69561;37.974;23.708;2023-06-26T04:37:09;28.80;48.50
80250;DHT22;69561;37.974;23.708;2023-06-26T04:39:36;28.90;48.50
80250;DHT22;69561;37.974;23.708;2023-06-26T04:42:03;28.90;48.40
80250;DHT22;69561;37.974;23.708;2023-06-26T04:44:29;28.90;48.40
80250;DHT22;69561;37.974;23.708;2023-06-26T04:46:55;28.90;48.40
80250;DHT22;69561;37.974;23.708;2023-06-26T04:49:20;28.90;48.30
80250;DHT22;69561;37.974;23.708;2023-06-26T04:51:46;28.90;48.30
80250;DHT22;69561;37.974;23.708;2023-06-26T04:54:16;28.90;48.20
80250;DHT22;69561;37.974;23.708;2023-06-26T04:56:42;28.90;48.20
80250;DHT22;69561;37.974;23.708;2023-06-26T04:59:09;28.90;48.10
80250;DHT22;69561;37.974;23.708;2023-06-26T05:01:39;28.90;48.10
80250;DHT22;69561;37.974;23.708;2023-06-26T05:04:05;28.90;48.00
80250;DHT22;69561;37.974;23.708;2023-06-26T05:06:31;28.90;48.10
80250;DHT22;69561;37.974;23.708;2023-06-26T05:08:57;28.90;48.00
80250;DHT22;69561;37.974;23.708;2023-06-26T05:11:23;28.90;48.00
80250;DHT22;69561;37.974;23.708;2023-06-26T05:13:50;28.90;48.00
80250;DHT22;69561;37.974;23.708;2023-06-26T05:16:15;28.90;47.90
80250;DHT22;69561;37.974;23.708;2023-06-26T05:18:41;28.90;48.00
80250;DHT22;69561;37.974;23.708;2023-06-26T05:21:07;29.00;48.00
80250;DHT22;69561;37.974;23.708;2023-06-26T05:23:33;29.00;47.70
80250;DHT22;69561;37.974;23.708;2023-06-26T05:26:03;29.10;47.70
80250;DHT22;69561;37.974;23.708;2023-06-26T05:28:30;29.10;47.40
80250;DHT22;69561;37.974;23.708;2023-06-26T05:30:59;29.10;47.30
80250;DHT22;69561;37.974;23.708;2023-06-26T05:33:26;29.20;47.20
80250;DHT22;69561;37.974;23.708;2023-06-26T05:35:52;29.20;47.00
80250;DHT22;69561;37.974;23.708;2023-06-26T05:38:19;29.20;46.90
80250;DHT22;69561;37.974;23.708;2023-06-26T05:40:45;29.20;46.90
80250;DHT22;69561;37.974;23.708;2023-06-26T05:43:11;29.20;46.80
80250;DHT22;69561;37.974;23.708;2023-06-26T05:45:36;29.10;46.80
80250;DHT22;69561;37.974;23.708;2023-06-26T05:48:02;29.10;47.00
80250;DHT22;69561;37.974;23.708;2023-06-26T05:50:28;29.00;47.00
80250;DHT22;69561;37.974;23.708;2023-06-26T05:52:55;29.10;47.00
80250;DHT22;69561;37.974;23.708;2023-06-26T05:55:21;29.10;47.10
80250;DHT22;69561;37.974;23.708;2023-06-26T05:57:47;29.00;47.20
80250;DHT22;69561;37.974;23.708;2023-06-26T06:00:15;29.00;47.30
80250;DHT22;69561;37.974;23.708;2023-06-26T06:02:42;28.90;47.20
80250;DHT22;69561;37.974;23.708;2023-06-26T06:05:08;28.90;47.00
80250;DHT22;69561;37.974;23.708;2023-06-26T06:07:35;28.90;46.80
80250;DHT22;69561;37.974;23.708;2023-06-26T06:10:02;28.90;46.60
80250;DHT22;69561;37.974;23.708;2023-06-26T06:12:28;28.90;46.40
80250;DHT22;69561;37.974;23.708;2023-06-26T06:14:55;29.00;46.30
80250;DHT22;69561;37.974;23.708;2023-06-26T06:17:20;28.90;46.10
80250;DHT22;69561;37.974;23.708;2023-06-26T06:19:46;28.90;46.00
80250;DHT22;69561;37.974;23.708;2023-06-26T06:22:12;28.90;46.90
80250;DHT22;69561;37.974;23.708;2023-06-26T06:24:38;29.00;46.70
80250;DHT22;69561;37.974;23.708;2023-06-26T06:27:03;29.00;45.60
80250;DHT22;69561;37.974;23.708;2023-06-26T06:29:29;28.90;45.50
80250;DHT22;69561;37.974;23.708;2023-06-26T06:31:56;29.00;45.50
80250;DHT22;69561;37.974;23.708;2023-06-26T06:34:21;28.90;45.60
80250;DHT22;69561;37.974;23.708;2023-06-26T06:36:47;28.90;45.70
80250;DHT22;69561;37.974;23.708;2023-06-26T06:39:16;28.80;45.80
80250;DHT22;69561;37.974;23.708;2023-06-26T06:41:41;28.80;46.00
80250;DHT22;69561;37.974;23.708;2023-06-26T06:44:07;28.80;45.90
80250;DHT22;69561;37.974;23.708;2023-06-26T06:46:33;28.80;45.70
80250;DHT22;69561;37.974;23.708;2023-06-26T06:48:59;28.80;45.70
80250;DHT22;69561;37.974;23.708;2023-06-26T06:51:26;28.80;45.70
80250;DHT22;69561;37.974;23.708;2023-06-26T06:53:51;28.80;45.70
80250;DHT22;69561;37.974;23.708;2023-06-26T06:56:19;28.80;45.90
80250;DHT22;69561;37.974;23.708;2023-06-26T06:58:45;28.80;46.00
80250;DHT22;69561;37.974;23.708;2023-06-26T07:01:12;28.90;46.10
80250;DHT22;69561;37.974;23.708;2023-06-26T07:03:39;28.80;46.20
80250;DHT22;69561;37.974;23.708;2023-06-26T07:06:05;28.80;46.20
80250;DHT22;69561;37.974;23.708;2023-06-26T07:08:30;28.80;46.20
80250;DHT22;69561;37.974;23.708;2023-06-26T07:10:56;28.90;46.30
80250;DHT22;69561;37.974;23.708;2023-06-26T07:13:22;28.90;46.30
80250;DHT22;69561;37.974;23.708;2023-06-26T07:15:48;28.90;46.20
80250;DHT22;69561;37.974;23.708;2023-06-26T07:18:14;28.90;46.30
80250;DHT22;69561;37.974;23.708;2023-06-26T07:20:40;28.90;46.30
80250;DHT22;69561;37.974;23.708;2023-06-26T07:23:06;28.90;47.30
80250;DHT22;69561;37.974;23.708;2023-06-26T07:25:31;28.90;46.30
80250;DHT22;69561;37.974;23.708;2023-06-26T07:27:57;28.90;46.20
80250;DHT22;69561;37.974;23.708;2023-06-26T07:30:23;28.90;46.10
80250;DHT22;69561;37.974;23.708;2023-06-26T07:32:50;28.90;46.20
80250;DHT22;69561;37.974;23.708;2023-06-26T07:35:15;28.90;46.20
80250;DHT22;69561;37.974;23.708;2023-06-26T07:37:41;28.90;46.20
80250;DHT22;69561;37.974;23.708;2023-06-26T07:40:08;28.90;46.30
80250;DHT22;69561;37.974;23.708;2023-06-26T07:42:34;28.90;46.30
80250;DHT22;69561;37.974;23.708;2023-06-26T07:44:59;28.90;46.40
80250;DHT22;69561;37.974;23.708;2023-06-26T07:47:25;28.80;46.40
80250;DHT22;69561;37.974;23.708;2023-06-26T07:49:51;28.80;46.40
80250;DHT22;69561;37.974;23.708;2023-06-26T07:52:18;28.90;47.40
80250;DHT22;69561;37.974;23.708;2023-06-26T07:54:44;28.80;46.30
80250;DHT22;69561;37.974;23.708;2023-06-26T07:57:12;28.80;46.30
80250;DHT22;69561;37.974;23.708;2023-06-26T07:59:38;28.80;46.30
80250;DHT22;69561;37.974;23.708;2023-06-26T08:02:04;28.90;46.20
80250;DHT22;69561;37.974;23.708;2023-06-26T08:04:30;28.90;46.10
80250;DHT22;69561;37.974;23.708;2023-06-26T08:07:00;29.00;46.10
80250;DHT22;69561;37.974;23.708;2023-06-26T08:09:27;28.90;46.10
80250;DHT22;69561;37.974;23.708;2023-06-26T08:11:53;28.80;46.10
80250;DHT22;69561;37.974;23.708;2023-06-26T08:14:19;28.90;46.10
80250;DHT22;69561;37.974;23.708;2023-06-26T08:16:46;28.90;46.10
80250;DHT22;69561;37.974;23.708;2023-06-26T08:19:15;29.00;46.00
80250;DHT22;69561;37.974;23.708;2023-06-26T08:21:42;28.90;45.80
80250;DHT22;69561;37.974;23.708;2023-06-26T08:24:08;28.90;45.80
80250;DHT22;69561;37.974;23.708;2023-06-26T08:26:35;28.90;45.70
80250;DHT22;69561;37.974;23.708;2023-06-26T08:29:01;28.90;45.80
80250;DHT22;69561;37.974;23.708;2023-06-26T08:31:33;28.90;45.90
80250;DHT22;69561;37.974;23.708;2023-06-26T08:34:00;28.80;45.90
80250;DHT22;69561;37.974;23.708;2023-06-26T08:36:26;28.80;45.90
80250;DHT22;69561;37.974;23.708;2023-06-26T08:38:52;28.80;45.90
80250;DHT22;69561;37.974;23.708;2023-06-26T08:41:17;28.80;45.90
80250;DHT22;69561;37.974;23.708;2023-06-26T08:43:43;28.80;45.80
80250;DHT22;69561;37.974;23.708;2023-06-26T08:46:09;28.80;45.70
80250;DHT22;69561;37.974;23.708;2023-06-26T08:48:35;28.80;45.70
80250;DHT22;69561;37.974;23.708;2023-06-26T08:51:12;28.80;45.60
80250;DHT22;69561;37.974;23.708;2023-06-26T08:53:49;28.90;45.50
80250;DHT22;69561;37.974;23.708;2023-06-26T08:56:17;28.90;45.40
80250;DHT22;69561;37.974;23.708;2023-06-26T08:58:46;28.90;45.30
80250;DHT22;69561;37.974;23.708;2023-06-26T09:01:12;28.90;45.30
80250;DHT22;69561;37.974;23.708;2023-06-26T09:03:38;28.90;45.30
80250;DHT22;69561;37.974;23.708;2023-06-26T09:06:04;28.90;45.30
80250;DHT22;69561;37.974;23.708;2023-06-26T09:08:29;28.90;45.30
80250;DHT22;69561;37.974;23.708;2023-06-26T09:10:55;28.80;45.30
80250;DHT22;69561;37.974;23.708;2023-06-26T09:13:21;28.80;45.40
80250;DHT22;69561;37.974;23.708;2023-06-26T09:15:47;28.80;45.30
80250;DHT22;69561;37.974;23.708;2023-06-26T09:18:13;28.90;45.30
80250;DHT22;69561;37.974;23.708;2023-06-26T09:20:42;28.90;45.30
80250;DHT22;69561;37.974;23.708;2023-06-26T09:23:08;28.90;45.40
80250;DHT22;69561;37.974;23.708;2023-06-26T09:25:39;28.90;45.40
80250;DHT22;69561;37.974;23.708;2023-06-26T09:28:05;28.80;45.50
80250;DHT22;69561;37.974;23.708;2023-06-26T09:30:35;28.80;45.60
80250;DHT22;69561;37.974;23.708;2023-06-26T09:33:21;28.80;45.60
80250;DHT22;69561;37.974;23.708;2023-06-26T09:35:47;28.80;46.30
80250;DHT22;69561;37.974;23.708;2023-06-26T09:38:13;28.80;45.70
80250;DHT22;69561;37.974;23.708;2023-06-26T09:40:40;28.90;45.70
80250;DHT22;69561;37.974;23.708;2023-06-26T09:43:10;28.90;45.50
80250;DHT22;69561;37.974;23.708;2023-06-26T09:45:40;28.90;45.60
80250;DHT22;69561;37.974;23.708;2023-06-26T09:48:06;28.90;45.70
80250;DHT22;69561;37.974;23.708;2023-06-26T09:50:34;28.90;46.70
80250;DHT22;69561;37.974;23.708;2023-06-26T09:53:10;28.90;45.50
80250;DHT22;69561;37.974;23.708;2023-06-26T09:55:36;28.90;45.60
80250;DHT22;69561;37.974;23.708;2023-06-26T09:58:03;28.90;45.70
80250;DHT22;69561;37.974;23.708;2023-06-26T10:00:30;28.80;45.70
80250;DHT22;69561;37.974;23.708;2023-06-26T10:02:56;28.80;45.70
80250;DHT22;69561;37.974;23.708;2023-06-26T10:05:22;28.90;45.80
80250;DHT22;69561;37.974;23.708;2023-06-26T10:07:48;28.80;45.80
80250;DHT22;69561;37.974;23.708;2023-06-26T10:10:16;28.80;46.00
80250;DHT22;69561;37.974;23.708;2023-06-26T10:12:46;28.80;46.00
80250;DHT22;69561;37.974;23.708;2023-06-26T10:15:13;28.80;46.00
80250;DHT22;69561;37.974;23.708;2023-06-26T10:17:43;28.80;46.00
80250;DHT22;69561;37.974;23.708;2023-06-26T10:20:10;28.90;46.00
80250;DHT22;69561;37.974;23.708;2023-06-26T10:22:46;28.90;46.10
80250;DHT22;69561;37.974;23.708;2023-06-26T10:25:16;28.80;46.00
80250;DHT22;69561;37.974;23.708;2023-06-26T10:27:45;28.80;46.10
80250;DHT22;69561;37.974;23.708;2023-06-26T10:30:20;28.90;46.20
80250;DHT22;69561;37.974;23.708;2023-06-26T10:32:48;28.90;46.30
80250;DHT22;69561;37.974;23.708;2023-06-26T10:35:15;28.90;46.30
80250;DHT22;69561;37.974;23.708;2023-06-26T10:37:50;28.80;46.50
80250;DHT22;69561;37.974;23.708;2023-06-26T10:40:26;28.80;46.70
80250;DHT22;69561;37.974;23.708;2023-06-26T10:43:05;28.80;46.90
80250;DHT22;69561;37.974;23.708;2023-06-26T10:45:33;28.80;47.10
80250;DHT22;69561;37.974;23.708;2023-06-26T10:47:59;28.80;47.20
80250;DHT22;69561;37.974;23.708;2023-06-26T10:50:35;28.90;47.60
80250;DHT22;69561;37.974;23.708;2023-06-26T10:53:23;28.80;47.70
80250;DHT22;69561;37.974;23.708;2023-06-26T10:56:02;28.90;48.20
80250;DHT22;69561;37.974;23.708;2023-06-26T10:58:54;28.80;48.40
80250;DHT22;69561;37.974;23.708;2023-06-26T11:01:40;28.90;48.70
80250;DHT22;69561;37.974;23.708;2023-06-26T11:04:07;28.90;49.10
80250;DHT22;69561;37.974;23.708;2023-06-26T11:06:34;28.90;49.70
80250;DHT22;69561;37.974;23.708;2023-06-26T11:14:23;28.90;50.30
80250;DHT22;69561;37.974;23.708;2023-06-26T11:16:49;28.90;50.60
80250;DHT22;69561;37.974;23.708;2023-06-26T11:19:17;28.90;50.90
80250;DHT22;69561;37.974;23.708;2023-06-26T11:21:43;28.90;51.40
80250;DHT22;69561;37.974;23.708;2023-06-26T11:24:11;28.80;51.90
80250;DHT22;69561;37.974;23.708;2023-06-26T11:26:40;28.90;52.60
80250;DHT22;69561;37.974;23.708;2023-06-26T11:29:06;28.90;52.50
80250;DHT22;69561;37.974;23.708;2023-06-26T11:31:34;28.90;52.60
80250;DHT22;69561;37.974;23.708;2023-06-26T11:34:10;29.00;52.60
80250;DHT22;69561;37.974;23.708;2023-06-26T11:36:43;28.90;52.70
80250;DHT22;69561;37.974;23.708;2023-06-26T11:39:11;28.90;53.00
80250;DHT22;69561;37.974;23.708;2023-06-26T11:41:39;28.90;53.00
80250;DHT22;69561;37.974;23.708;2023-06-26T11:44:06;28.90;53.10
80250;DHT22;69561;37.974;23.708;2023-06-26T11:46:33;28.90;53.10
80250;DHT22;69561;37.974;23.708;2023-06-26T11:48:59;28.90;53.10
80250;DHT22;69561;37.974;23.708;2023-06-26T11:51:28;28.90;53.10
80250;DHT22;69561;37.974;23.708;2023-06-26T11:53:54;29.00;53.00
80250;DHT22;69561;37.974;23.708;2023-06-26T11:56:20;29.00;53.00
80250;DHT22;69561;37.974;23.708;2023-06-26T11:59:02;28.90;53.00
80250;DHT22;69561;37.974;23.708;2023-06-26T12:01:44;28.90;53.00
80250;DHT22;69561;37.974;23.708;2023-06-26T12:04:11;28.90;53.10
80250;DHT22;69561;37.974;23.708;2023-06-26T12:06:43;28.90;53.00
80250;DHT22;69561;37.974;23.708;2023-06-26T12:09:11;28.90;53.00
80250;DHT22;69561;37.974;23.708;2023-06-26T12:11:39;28.90;53.00
80250;DHT22;69561;37.974;23.708;2023-06-26T12:14:06;28.90;52.90
80250;DHT22;69561;37.974;23.708;2023-06-26T12:16:34;28.90;52.90
80250;DHT22;69561;37.974;23.708;2023-06-26T12:19:00;28.90;52.90
80250;DHT22;69561;37.974;23.708;2023-06-26T12:24:08;29.00;52.90
80250;DHT22;69561;37.974;23.708;2023-06-26T12:26:34;29.00;52.90
80250;DHT22;69561;37.974;23.708;2023-06-26T12:29:04;29.00;53.00
80250;DHT22;69561;37.974;23.708;2023-06-26T12:31:31;28.90;52.90
80250;DHT22;69561;37.974;23.708;2023-06-26T12:33:57;29.00;53.00
80250;DHT22;69561;37.974;23.708;2023-06-26T12:36:23;28.90;52.90
80250;DHT22;69561;37.974;23.708;2023-06-26T12:38:49;28.90;52.80
80250;DHT22;69561;37.974;23.708;2023-06-26T12:41:15;28.90;52.80
80250;DHT22;69561;37.974;23.708;2023-06-26T12:43:42;28.90;52.70
80250;DHT22;69561;37.974;23.708;2023-06-26T12:46:08;29.00;52.80
80250;DHT22;69561;37.974;23.708;2023-06-26T12:48:41;29.00;52.70
80250;DHT22;69561;37.974;23.708;2023-06-26T12:51:14;29.00;52.70
80250;DHT22;69561;37.974;23.708;2023-06-26T12:53:40;29.00;52.60
80250;DHT22;69561;37.974;23.708;2023-06-26T12:56:07;29.00;52.60
80250;DHT22;69561;37.974;23.708;2023-06-26T12:58:34;28.90;52.40
80250;DHT22;69561;37.974;23.708;2023-06-26T13:01:02;29.00;52.50
80250;DHT22;69561;37.974;23.708;2023-06-26T13:03:28;29.00;52.30
80250;DHT22;69561;37.974;23.708;2023-06-26T13:05:54;29.00;52.40
80250;DHT22;69561;37.974;23.708;2023-06-26T13:08:19;29.00;52.30
80250;DHT22;69561;37.974;23.708;2023-06-26T13:10:45;29.00;52.30
80250;DHT22;69561;37.974;23.708;2023-06-26T13:13:11;29.00;52.30
80250;DHT22;69561;37.974;23.708;2023-06-26T13:15:37;29.00;52.30
80250;DHT22;69561;37.974;23.708;2023-06-26T13:18:03;29.00;52.50
80250;DHT22;69561;37.974;23.708;2023-06-26T13:20:28;29.10;52.70
80250;DHT22;69561;37.974;23.708;2023-06-26T13:22:55;29.10;52.90
80250;DHT22;69561;37.974;23.708;2023-06-26T13:25:21;29.10;52.90
80250;DHT22;69561;37.974;23.708;2023-06-26T13:27:47;29.10;53.10
80250;DHT22;69561;37.974;23.708;2023-06-26T13:30:14;29.10;53.20
80250;DHT22;69561;37.974;23.708;2023-06-26T13:32:39;29.20;53.20
80250;DHT22;69561;37.974;23.708;2023-06-26T13:35:05;29.20;53.00
80250;DHT22;69561;37.974;23.708;2023-06-26T13:37:32;29.10;52.80
80250;DHT22;69561;37.974;23.708;2023-06-26T13:40:00;29.10;52.80
80250;DHT22;69561;37.974;23.708;2023-06-26T13:42:26;29.10;52.90
80250;DHT22;69561;37.974;23.708;2023-06-26T13:44:52;29.10;53.20
80250;DHT22;69561;37.974;23.708;2023-06-26T13:47:18;29.10;53.20
80250;DHT22;69561;37.974;23.708;2023-06-26T13:49:44;29.10;53.30
80250;DHT22;69561;37.974;23.708;2023-06-26T13:52:09;29.10;53.30
80250;DHT22;69561;37.974;23.708;2023-06-26T13:54:36;29.10;53.10
80250;DHT22;69561;37.974;23.708;2023-06-26T13:57:06;29.10;52.90
80250;DHT22;69561;37.974;23.708;2023-06-26T13:59:33;29.10;52.70
80250;DHT22;69561;37.974;23.708;2023-06-26T14:01:58;29.20;53.20
80250;DHT22;69561;37.974;23.708;2023-06-26T14:04:25;29.10;52.50
80250;DHT22;69561;37.974;23.708;2023-06-26T14:06:51;29.10;52.30
80250;DHT22;69561;37.974;23.708;2023-06-26T14:09:16;29.10;52.30
80250;DHT22;69561;37.974;23.708;2023-06-26T14:11:43;29.10;52.20
80250;DHT22;69561;37.974;23.708;2023-06-26T14:14:09;29.10;52.10
80250;DHT22;69561;37.974;23.708;2023-06-26T14:16:35;29.10;52.10
80250;DHT22;69561;37.974;23.708;2023-06-26T14:19:00;29.00;51.90
80250;DHT22;69561;37.974;23.708;2023-06-26T14:21:27;29.10;52.00
80250;DHT22;69561;37.974;23.708;2023-06-26T14:23:54;29.00;52.00
80250;DHT22;69561;37.974;23.708;2023-06-26T14:26:20;29.10;52.10
80250;DHT22;69561;37.974;23.708;2023-06-26T14:28:46;29.00;52.10
80250;DHT22;69561;37.974;23.708;2023-06-26T14:31:12;29.00;52.10
80250;DHT22;69561;37.974;23.708;2023-06-26T14:33:38;29.00;52.00
80250;DHT22;69561;37.974;23.708;2023-06-26T14:36:04;29.00;52.00
80250;DHT22;69561;37.974;23.708;2023-06-26T14:38:30;29.00;51.90
80250;DHT22;69561;37.974;23.708;2023-06-26T14:40:56;29.00;52.00
80250;DHT22;69561;37.974;23.708;2023-06-26T14:43:21;28.90;52.00
80250;DHT22;69561;37.974;23.708;2023-06-26T14:45:47;29.00;52.10
80250;DHT22;69561;37.974;23.708;2023-06-26T14:48:13;29.00;52.10
80250;DHT22;69561;37.974;23.708;2023-06-26T14:50:39;29.00;52.00
80250;DHT22;69561;37.974;23.708;2023-06-26T14:53:05;29.00;51.90
80250;DHT22;69561;37.974;23.708;2023-06-26T14:55:31;29.00;51.90
80250;DHT22;69561;37.974;23.708;2023-06-26T14:57:56;29.00;51.90
80250;DHT22;69561;37.974;23.708;2023-06-26T15:00:22;29.00;51.90
80250;DHT22;69561;37.974;23.708;2023-06-26T15:02:49;29.00;51.80
80250;DHT22;69561;37.974;23.708;2023-06-26T15:05:15;29.00;51.70
80250;DHT22;69561;37.974;23.708;2023-06-26T15:07:41;29.00;51.60
80250;DHT22;69561;37.974;23.708;2023-06-26T15:10:07;29.00;51.40
80250;DHT22;69561;37.974;23.708;2023-06-26T15:12:33;29.00;51.40
80250;DHT22;69561;37.974;23.708;2023-06-26T15:14:58;28.90;51.40
80250;DHT22;69561;37.974;23.708;2023-06-26T15:17:24;29.00;51.40
80250;DHT22;69561;37.974;23.708;2023-06-26T15:19:50;29.00;51.30
80250;DHT22;69561;37.974;23.708;2023-06-26T15:22:18;28.90;51.30
80250;DHT22;69561;37.974;23.708;2023-06-26T15:24:44;28.90;51.50
80250;DHT22;69561;37.974;23.708;2023-06-26T15:27:09;28.90;51.50
80250;DHT22;69561;37.974;23.708;2023-06-26T15:29:35;28.90;51.60